Terminal Aerodrome Forecast
Issued by NWS Missoula, MT

Home | Current Version | Previous Version | Text Only | Print | Product List | Glossary On
Versions: 1 2 3 4 5 6 7 8 9 10 11 12 13 14 15 16 17 18 19 20 21 22
954
FTUS45 KMSO 231456 AAA
TAFBTM
TAF AMD
KBTM 231456Z 2315/2412 33005KT P6SM BKN070
      TEMPO 2315/2316 BKN025
     FM232000 30012G22KT P6SM SCT150
     FM240100 30010KT P6SM SKC=

USA.gov is the U.S. government's official web portal to all federal, state and local government web resources and services.